createdAt,value
2018-07-19T00:00:18.165Z,4.23
2018-07-19T00:02:46.509Z,5.17
2018-07-19T00:05:15.157Z,5.07
2018-07-19T00:07:43.704Z,5.03
2018-07-19T00:10:14.101Z,5.10
2018-07-19T00:12:42.469Z,5.40
2018-07-19T00:15:11.070Z,5.60
2018-07-19T00:17:39.632Z,5.37
2018-07-19T00:20:10.613Z,5.40
2018-07-19T00:22:39.294Z,5.37
2018-07-19T00:25:07.760Z,5.10
2018-07-19T00:27:36.283Z,5.20
2018-07-19T00:30:05.279Z,5.17
2018-07-19T00:32:33.670Z,5.37
2018-07-19T00:35:03.397Z,6.23
2018-07-19T00:37:31.970Z,5.57
2018-07-19T00:53:01.355Z,5.67
2018-07-19T00:55:29.948Z,6.00
2018-07-19T00:57:58.496Z,6.23
2018-07-19T01:00:27.334Z,6.27
2018-07-19T01:02:55.848Z,6.70
2018-07-19T01:05:24.389Z,6.60
2018-07-19T01:07:52.838Z,6.50
2018-07-19T01:10:21.377Z,5.93
2018-07-19T01:12:49.771Z,5.83
2018-07-19T01:15:18.883Z,5.93
2018-07-19T01:17:47.268Z,6.30
2018-07-19T01:20:15.945Z,5.90
2018-07-19T01:22:44.475Z,6.40
2018-07-19T01:25:13.590Z,6.30
2018-07-19T01:27:42.059Z,6.60
2018-07-19T01:30:12.299Z,6.35
2018-07-19T01:32:40.892Z,5.90
2018-07-19T01:35:09.446Z,6.63
2018-07-19T01:37:38.407Z,6.87
2018-07-19T01:40:07.274Z,6.40
2018-07-19T01:42:39.008Z,6.17
2018-07-19T01:45:08.588Z,6.60
2018-07-19T01:47:37.704Z,6.70
2018-07-19T01:50:08.190Z,5.73
2018-07-19T01:52:36.644Z,6.40
2018-07-19T01:55:05.629Z,6.53
2018-07-19T01:57:34.321Z,6.10
2018-07-19T02:00:03.220Z,6.13
2018-07-19T02:02:31.713Z,6.30
2018-07-19T02:04:59.793Z,6.67
2018-07-19T02:07:28.325Z,6.67
2018-07-19T02:09:56.931Z,7.57
2018-07-19T02:12:25.493Z,7.23
2018-07-19T02:14:53.856Z,7.10
2018-07-19T02:17:22.414Z,13.63
2018-07-19T02:19:51.821Z,16.47
2018-07-19T02:22:20.461Z,11.57
2018-07-19T02:24:48.827Z,10.17
2018-07-19T02:27:18.316Z,10.08
2018-07-19T02:29:47.214Z,9.43
2018-07-19T02:32:15.826Z,9.13
2018-07-19T02:34:44.618Z,9.80
2018-07-19T02:37:12.994Z,9.90
2018-07-19T02:39:41.965Z,11.67
2018-07-19T02:42:11.180Z,10.53
2018-07-19T02:44:39.805Z,9.63
2018-07-19T02:47:08.982Z,9.73
2018-07-19T02:49:37.413Z,8.63
2018-07-19T02:52:06.737Z,9.73
2018-07-19T02:54:35.091Z,8.43
2018-07-19T02:57:03.475Z,8.90
2018-07-19T02:59:33.943Z,7.90
2018-07-19T03:02:04.179Z,7.90
2018-07-19T03:04:33.815Z,8.10
2018-07-19T03:07:02.843Z,7.70
2018-07-19T03:09:31.511Z,7.33
2018-07-19T03:11:59.791Z,7.67
2018-07-19T03:14:28.732Z,7.60
2018-07-19T03:16:57.396Z,7.57
2018-07-19T03:19:26.037Z,7.30
2018-07-19T03:21:55.612Z,8.80
2018-07-19T03:24:26.277Z,7.50
2018-07-19T03:26:56.677Z,7.73
2018-07-19T03:29:25.237Z,8.17
2018-07-19T03:31:53.771Z,7.40
2018-07-19T03:34:22.388Z,7.30
2018-07-19T03:36:50.774Z,7.70
2018-07-19T03:39:20.378Z,7.40
2018-07-19T03:41:48.744Z,7.87
2018-07-19T03:44:17.130Z,7.13
2018-07-19T03:46:45.733Z,7.60
2018-07-19T03:49:14.431Z,7.83
2018-07-19T03:51:42.988Z,7.50
2018-07-19T03:54:12.353Z,8.27
2018-07-19T03:56:40.755Z,8.10
2018-07-19T03:59:10.429Z,8.47
2018-07-19T04:01:39.933Z,8.33
2018-07-19T04:04:08.581Z,8.83
2018-07-19T04:06:37.617Z,8.27
2018-07-19T04:09:07.121Z,8.03
2018-07-19T04:11:36.281Z,8.47
2018-07-19T04:14:06.254Z,8.67
2018-07-19T04:16:34.613Z,7.63
2018-07-19T04:19:04.414Z,8.40
2018-07-19T04:21:33.001Z,6.87
2018-07-19T04:24:03.947Z,8.23
2018-07-19T04:26:32.435Z,7.67
2018-07-19T04:29:00.831Z,7.50
2018-07-19T04:31:29.489Z,7.33
2018-07-19T04:33:58.724Z,7.77
2018-07-19T04:36:28.286Z,7.80
2018-07-19T04:38:56.698Z,7.60
2018-07-19T04:41:25.077Z,7.20
2018-07-19T04:43:53.643Z,7.97
2018-07-19T04:46:22.507Z,7.20
2018-07-19T04:48:50.749Z,7.40
2018-07-19T04:51:19.148Z,7.23
2018-07-19T04:53:47.872Z,6.83
2018-07-19T04:56:16.837Z,7.00
2018-07-19T04:58:45.453Z,6.67
2018-07-19T05:01:13.984Z,6.33
2018-07-19T05:03:42.652Z,7.23
2018-07-19T05:06:11.510Z,10.07
2018-07-19T05:08:39.898Z,7.77
2018-07-19T05:11:08.490Z,6.80
2018-07-19T05:13:43.230Z,6.80
2018-07-19T05:16:11.630Z,6.73
2018-07-19T05:18:40.128Z,6.03
2018-07-19T05:21:08.771Z,6.80
2018-07-19T05:23:37.440Z,6.53
2018-07-19T05:26:06.026Z,6.00
2018-07-19T05:28:34.587Z,6.33
2018-07-19T05:31:03.820Z,6.00
2018-07-19T05:43:18.562Z,5.53
2018-07-19T05:45:46.876Z,5.70
2018-07-19T05:48:15.270Z,5.30
2018-07-19T05:50:43.631Z,5.60
2018-07-19T05:53:12.211Z,5.43
2018-07-19T05:55:41.498Z,4.97
2018-07-19T05:58:10.174Z,5.07
2018-07-19T06:00:38.806Z,4.73
2018-07-19T06:03:07.381Z,5.10
2018-07-19T06:05:35.911Z,4.97
2018-07-19T06:08:04.508Z,5.00
2018-07-19T06:10:33.266Z,5.03
2018-07-19T06:13:01.844Z,4.43
2018-07-19T06:15:30.421Z,4.50
2018-07-19T06:17:59.892Z,4.60
2018-07-19T06:20:28.574Z,4.73
2018-07-19T06:22:56.947Z,4.67
2018-07-19T06:25:25.594Z,5.10
2018-07-19T06:27:54.024Z,5.30
2018-07-19T06:30:22.834Z,5.03
2018-07-19T06:32:51.535Z,5.17
2018-07-19T06:35:21.065Z,4.60
2018-07-19T06:37:49.413Z,3.90
2018-07-19T06:40:18.038Z,3.57
2018-07-19T06:42:46.526Z,4.27
2018-07-19T06:45:14.885Z,4.00
2018-07-19T06:47:43.341Z,3.70
2018-07-19T06:50:11.849Z,5.47
2018-07-19T06:52:40.520Z,3.53
2018-07-19T06:55:09.154Z,4.03
2018-07-19T06:57:38.823Z,7.10
2018-07-19T07:00:07.921Z,3.93
2018-07-19T07:02:37.150Z,3.12
2018-07-19T07:05:05.984Z,2.90
2018-07-19T07:07:35.193Z,3.53
2018-07-19T07:10:04.094Z,3.57
2018-07-19T07:12:32.703Z,3.60
2018-07-19T07:15:01.491Z,4.30
2018-07-19T07:17:29.959Z,3.20
2018-07-19T07:20:00.919Z,3.47
2018-07-19T07:22:29.581Z,3.20
2018-07-19T07:24:58.581Z,3.53
2018-07-19T07:27:27.205Z,3.80
2018-07-19T07:29:56.376Z,3.75
2018-07-19T07:32:25.085Z,3.13
2018-07-19T07:34:55.350Z,3.30
2018-07-19T07:37:23.972Z,3.90
2018-07-19T07:39:52.905Z,3.80
2018-07-19T07:42:21.725Z,3.67
2018-07-19T07:44:51.111Z,3.58
2018-07-19T07:47:21.554Z,6.00
2018-07-19T07:49:50.661Z,4.30
2018-07-19T07:52:19.275Z,3.93
2018-07-19T07:54:48.221Z,3.57
2018-07-19T07:57:18.078Z,3.85
2018-07-19T07:59:47.203Z,3.95
2018-07-19T08:02:20.029Z,4.10
2018-07-19T08:04:48.856Z,5.20
2018-07-19T08:07:18.875Z,5.03
2018-07-19T08:09:48.341Z,7.20
2018-07-19T08:12:18.426Z,3.77
2018-07-19T08:14:48.491Z,5.35
2018-07-19T08:17:19.910Z,4.10
2018-07-19T08:19:52.775Z,4.35
2018-07-19T08:22:24.103Z,4.33
2018-07-19T08:24:53.124Z,4.10
2018-07-19T08:27:21.958Z,3.83
2018-07-19T08:29:51.889Z,3.55
2018-07-19T08:32:21.070Z,3.15
2018-07-19T08:34:50.173Z,3.33
2018-07-19T08:37:19.407Z,3.77
2018-07-19T08:39:48.084Z,3.73
2018-07-19T08:42:18.185Z,3.30
2018-07-19T08:44:47.230Z,3.60
2018-07-19T08:47:17.155Z,3.57
2018-07-19T08:49:47.928Z,3.53
2018-07-19T08:52:17.831Z,3.57
2018-07-19T08:54:46.883Z,3.50
2018-07-19T08:57:16.126Z,3.50
2018-07-19T08:59:47.543Z,4.10
2018-07-19T09:02:16.663Z,3.30
2018-07-19T09:04:48.963Z,3.42
2018-07-19T09:07:22.374Z,3.13
2018-07-19T09:09:51.700Z,3.33
2018-07-19T09:12:20.814Z,3.05
2018-07-19T09:14:49.802Z,3.52
2018-07-19T09:17:18.889Z,3.45
2018-07-19T09:19:47.782Z,3.27
2018-07-19T09:22:16.949Z,3.40
2018-07-19T09:24:46.213Z,4.53
2018-07-19T09:27:15.344Z,4.10
2018-07-19T09:29:44.546Z,3.72
2018-07-19T09:32:13.731Z,3.40
2018-07-19T09:34:42.687Z,4.55
2018-07-19T09:37:11.609Z,3.60
2018-07-19T09:39:40.723Z,3.33
2018-07-19T09:42:09.961Z,5.10
2018-07-19T09:44:38.696Z,4.47
2018-07-19T09:47:10.993Z,3.37
2018-07-19T09:49:39.887Z,5.73
2018-07-19T09:52:08.708Z,4.33
2018-07-19T09:54:48.446Z,4.70
2018-07-19T09:57:18.326Z,3.40
2018-07-19T09:59:47.316Z,3.40
2018-07-19T10:02:16.714Z,3.30
2018-07-19T10:04:45.894Z,4.00
2018-07-19T10:07:14.711Z,3.97
2018-07-19T10:09:43.674Z,3.50
2018-07-19T10:12:12.795Z,3.12
2018-07-19T10:14:41.676Z,3.80
2018-07-19T10:17:15.476Z,3.13
2018-07-19T10:19:44.926Z,2.98
2018-07-19T10:22:13.986Z,3.37
2018-07-19T10:24:51.133Z,3.00
2018-07-19T10:27:29.854Z,3.34
2018-07-19T10:29:59.016Z,2.70
2018-07-19T10:32:28.306Z,3.10
2018-07-19T10:34:57.040Z,2.90
2018-07-19T10:37:25.863Z,3.20
2018-07-19T10:39:54.754Z,3.03
2018-07-19T10:42:23.838Z,2.77
2018-07-19T10:44:52.966Z,2.80
2018-07-19T10:47:21.786Z,2.43
2018-07-19T10:49:50.932Z,3.43
2018-07-19T10:52:19.628Z,2.67
2018-07-19T10:54:48.726Z,3.00
2018-07-19T10:57:18.883Z,2.70
2018-07-19T10:59:47.916Z,3.33
2018-07-19T11:02:16.859Z,3.70
2018-07-19T11:04:45.849Z,2.58
2018-07-19T11:07:14.817Z,2.87
2018-07-19T11:09:44.133Z,2.80
2018-07-19T11:12:13.230Z,2.40
2018-07-19T11:14:41.940Z,2.90
2018-07-19T11:17:10.979Z,3.27
2018-07-19T11:19:39.654Z,2.50
2018-07-19T11:22:08.343Z,2.60
2018-07-19T11:24:36.723Z,2.80
2018-07-19T11:27:06.035Z,2.77
2018-07-19T11:29:35.141Z,3.33
2018-07-19T11:32:03.794Z,2.63
2018-07-19T11:34:32.756Z,2.25
2018-07-19T11:37:02.696Z,4.00
2018-07-19T11:39:31.057Z,3.20
2018-07-19T11:42:00.397Z,3.20
2018-07-19T11:44:29.758Z,3.40
2018-07-19T11:46:58.712Z,3.30
2018-07-19T11:49:27.666Z,4.83
2018-07-19T11:51:56.329Z,7.43
2018-07-19T11:54:24.968Z,5.33
2018-07-19T11:56:53.870Z,5.12
2018-07-19T11:59:22.919Z,3.47
2018-07-19T12:01:51.873Z,3.35
2018-07-19T12:04:20.901Z,3.35
2018-07-19T12:06:49.889Z,3.20
2018-07-19T12:09:19.003Z,3.25
2018-07-19T12:11:47.952Z,3.75
2018-07-19T12:14:18.277Z,3.83
2018-07-19T12:16:48.189Z,3.57
2018-07-19T12:19:19.952Z,3.37
2018-07-19T12:21:49.607Z,3.33
2018-07-19T12:24:20.094Z,3.10
2018-07-19T12:26:50.042Z,3.52
2018-07-19T12:29:19.708Z,3.10
2018-07-19T12:31:49.598Z,3.90
2018-07-19T12:34:18.749Z,3.13
2018-07-19T12:36:49.579Z,3.43
2018-07-19T12:39:19.592Z,3.10
2018-07-19T12:41:49.167Z,3.12
2018-07-19T12:44:17.951Z,4.83
2018-07-19T12:46:47.924Z,4.35
2018-07-19T12:49:18.080Z,3.70
2018-07-19T12:51:47.662Z,3.33
2018-07-19T12:54:17.515Z,3.00
2018-07-19T12:56:49.428Z,3.05
2018-07-19T12:59:19.897Z,3.33
2018-07-19T13:01:49.614Z,2.92
2018-07-19T13:04:19.288Z,2.70
2018-07-19T13:06:48.677Z,3.27
2018-07-19T13:09:19.119Z,3.20
2018-07-19T13:11:50.624Z,4.50
2018-07-19T13:14:22.131Z,3.70
2018-07-19T13:16:51.379Z,3.97
2018-07-19T13:19:20.592Z,3.57
2018-07-19T13:21:50.009Z,3.07
2018-07-19T13:24:20.231Z,7.00
2018-07-19T13:26:49.879Z,6.17
2018-07-19T13:29:19.930Z,4.28
2018-07-19T13:31:50.987Z,6.90
2018-07-19T13:34:20.567Z,4.10
2018-07-19T13:36:49.974Z,2.60
2018-07-19T13:39:19.217Z,2.83
2018-07-19T13:41:48.978Z,3.40
2018-07-19T13:44:18.521Z,3.62
2018-07-19T13:46:47.780Z,3.53
2018-07-19T13:49:17.186Z,3.07
2018-07-19T13:51:46.255Z,3.07
2018-07-19T13:54:49.171Z,3.17
2018-07-19T13:57:19.587Z,3.68
2018-07-19T13:59:49.346Z,3.17
2018-07-19T14:02:18.457Z,4.27
2018-07-19T14:04:47.652Z,2.80
2018-07-19T14:07:16.559Z,3.10
2018-07-19T14:09:45.890Z,2.80
2018-07-19T14:12:15.682Z,3.00
2018-07-19T14:14:47.783Z,3.12
2018-07-19T14:17:16.817Z,3.93
2018-07-19T14:19:46.889Z,3.40
2018-07-19T14:22:18.945Z,2.90
2018-07-19T14:24:48.599Z,2.70
2018-07-19T14:27:19.459Z,3.00
2018-07-19T14:29:52.082Z,2.85
2018-07-19T14:32:22.112Z,3.47
2018-07-19T14:34:51.923Z,2.50
2018-07-19T14:37:22.844Z,3.45
2018-07-19T14:39:51.433Z,3.90
2018-07-19T14:42:20.908Z,3.37
2018-07-19T14:44:50.612Z,4.35
2018-07-19T14:47:20.365Z,4.07
2018-07-19T14:49:49.560Z,3.47
2018-07-19T14:52:18.446Z,3.70
2018-07-19T14:54:47.884Z,2.87
2018-07-19T14:57:17.368Z,3.83
2018-07-19T14:59:47.331Z,3.22
2018-07-19T15:02:16.828Z,2.87
2018-07-19T15:04:49.083Z,2.93
2018-07-19T15:07:18.366Z,3.03
2018-07-19T15:09:49.615Z,3.40
2018-07-19T15:12:21.050Z,3.05
2018-07-19T15:14:53.877Z,3.12
2018-07-19T15:17:23.009Z,2.60
2018-07-19T15:19:52.295Z,2.95
2018-07-19T15:22:22.807Z,3.60
2018-07-19T15:24:52.873Z,4.90
2018-07-19T15:27:21.687Z,2.90
2018-07-19T15:29:51.168Z,2.55
2018-07-19T15:32:20.514Z,3.07
2018-07-19T15:34:50.749Z,2.80
2018-07-19T15:37:20.795Z,2.90
2018-07-19T15:39:50.389Z,2.70
2018-07-19T15:42:19.081Z,2.50
2018-07-19T15:44:48.287Z,2.42
2018-07-19T15:47:17.047Z,2.60
2018-07-19T15:49:46.459Z,2.20
2018-07-19T15:52:15.327Z,2.47
2018-07-19T15:54:44.326Z,2.30
2018-07-19T15:57:13.725Z,2.50
2018-07-19T15:59:43.293Z,2.80
2018-07-19T16:02:12.403Z,2.60
2018-07-19T16:04:41.150Z,2.50
2018-07-19T16:07:09.915Z,3.30
2018-07-19T16:09:38.977Z,7.40
2018-07-19T16:12:07.955Z,7.87
2018-07-19T16:14:36.954Z,2.83
2018-07-19T16:17:06.002Z,3.22
2018-07-19T16:19:35.031Z,2.67
2018-07-19T16:22:03.977Z,2.55
2018-07-19T16:24:32.902Z,3.10
2018-07-19T16:27:01.919Z,2.40
2018-07-19T16:29:30.859Z,2.87
2018-07-19T16:31:59.566Z,2.53
2018-07-19T16:34:28.197Z,2.90
2018-07-19T16:36:56.824Z,2.30
2018-07-19T16:39:25.212Z,2.60
2018-07-19T16:41:54.200Z,3.30
2018-07-19T16:44:22.860Z,3.20
2018-07-19T16:46:51.613Z,2.70
2018-07-19T16:49:20.311Z,2.87
2018-07-19T16:51:48.973Z,2.63
2018-07-19T16:54:19.227Z,3.47
2018-07-19T16:56:48.185Z,2.95
2018-07-19T16:59:16.826Z,3.17
2018-07-19T17:01:45.747Z,2.90
2018-07-19T17:04:14.516Z,2.73
2018-07-19T17:06:43.186Z,3.10
2018-07-19T17:09:12.413Z,2.77
2018-07-19T17:11:40.875Z,2.70
2018-07-19T17:14:09.600Z,2.93
2018-07-19T17:16:38.201Z,3.00
2018-07-19T17:19:06.990Z,2.90
2018-07-19T17:21:35.462Z,5.57
2018-07-19T17:24:04.522Z,4.72
2018-07-19T17:26:33.288Z,3.50
2018-07-19T17:29:02.028Z,3.20
2018-07-19T17:31:32.458Z,2.53
2018-07-19T17:34:01.150Z,5.57
2018-07-19T17:36:29.717Z,3.40
2018-07-19T17:38:58.673Z,3.02
2018-07-19T17:41:27.302Z,2.73
2018-07-19T17:43:56.305Z,2.40
2018-07-19T17:46:24.950Z,2.40
2018-07-19T17:48:53.890Z,2.40
2018-07-19T17:51:22.870Z,2.30
2018-07-19T17:53:51.938Z,3.30
2018-07-19T17:56:20.660Z,3.00
2018-07-19T17:58:49.426Z,2.20
2018-07-19T18:01:18.163Z,3.00
2018-07-19T18:03:47.021Z,2.03
2018-07-19T18:06:16.142Z,2.50
2018-07-19T18:08:47.777Z,2.33
2018-07-19T18:11:16.428Z,7.20
2018-07-19T18:13:45.463Z,5.63
2018-07-19T18:16:14.120Z,5.07
2018-07-19T18:18:43.559Z,2.40
2018-07-19T18:21:12.517Z,2.35
2018-07-19T18:23:43.626Z,2.80
2018-07-19T18:26:12.292Z,2.47
2018-07-19T18:28:41.335Z,2.90
2018-07-19T18:31:10.069Z,2.70
2018-07-19T18:33:39.043Z,3.10
2018-07-19T18:36:09.964Z,2.72
2018-07-19T18:38:41.646Z,3.07
2018-07-19T18:41:10.301Z,3.47
2018-07-19T18:43:39.507Z,2.87
2018-07-19T18:46:08.306Z,3.10
2018-07-19T18:48:37.386Z,2.53
2018-07-19T18:51:07.419Z,2.85
2018-07-19T18:53:36.537Z,3.17
2018-07-19T18:56:16.216Z,2.87
2018-07-19T18:58:45.492Z,3.90
2018-07-19T19:01:16.831Z,3.30
2018-07-19T19:03:46.028Z,3.33
2018-07-19T19:06:19.114Z,2.62
2018-07-19T19:08:45.051Z,2.65
2018-07-19T19:11:14.723Z,3.30
2018-07-19T19:13:44.971Z,4.60
2018-07-19T19:16:13.761Z,11.17
2018-07-19T19:18:42.557Z,9.07
2018-07-19T19:21:12.155Z,6.92
2018-07-19T19:23:44.543Z,5.30
2018-07-19T19:26:14.639Z,5.27
2018-07-19T19:28:44.481Z,4.50
2018-07-19T19:31:14.192Z,5.00
2018-07-19T19:33:43.452Z,16.62
2018-07-19T19:36:13.029Z,11.75
2018-07-19T19:38:44.614Z,7.77
2018-07-19T19:41:16.152Z,5.83
2018-07-19T19:43:47.022Z,3.97
2018-07-19T19:46:18.528Z,27.90
2018-07-19T19:48:48.326Z,13.47
2018-07-19T19:51:19.847Z,15.38
2018-07-19T19:53:49.926Z,7.33
2018-07-19T19:56:18.809Z,6.70
2018-07-19T19:58:48.444Z,24.50
2018-07-19T20:01:18.603Z,36.93
2018-07-19T20:03:47.737Z,15.33
2018-07-19T20:06:18.097Z,10.55
2018-07-19T20:08:47.447Z,8.23
2018-07-19T20:11:16.411Z,7.60
2018-07-19T20:13:45.379Z,6.20
2018-07-19T20:16:15.614Z,5.63
2018-07-19T20:18:44.529Z,5.07
2018-07-19T20:21:13.899Z,4.75
2018-07-19T20:23:43.013Z,4.57
2018-07-19T20:26:12.707Z,5.73
2018-07-19T20:28:41.812Z,28.60
2018-07-19T20:31:12.055Z,10.60
2018-07-19T20:33:41.662Z,8.50
2018-07-19T20:36:11.626Z,7.47
2018-07-19T20:38:41.243Z,6.30
2018-07-19T20:41:12.779Z,41.73
2018-07-19T20:43:42.469Z,14.33
2018-07-19T20:46:11.909Z,9.90
2018-07-19T20:48:42.649Z,14.47
2018-07-19T20:51:12.291Z,22.37
2018-07-19T20:53:41.291Z,11.80
2018-07-19T20:56:15.212Z,8.53
2018-07-19T20:58:48.979Z,9.10
2018-07-19T21:01:22.151Z,7.37
2018-07-19T21:03:53.409Z,7.30
2018-07-19T21:06:23.815Z,6.43
2018-07-19T21:08:56.052Z,6.28
2018-07-19T21:11:26.425Z,6.63
2018-07-19T21:13:59.105Z,6.57
2018-07-19T21:16:29.538Z,6.00
2018-07-19T21:18:58.190Z,5.53
2018-07-19T21:21:27.242Z,5.25
2018-07-19T21:23:56.194Z,5.10
2018-07-19T21:26:25.238Z,4.92
2018-07-19T21:28:54.146Z,5.30
2018-07-19T21:31:22.878Z,5.58
2018-07-19T21:33:51.809Z,4.97
2018-07-19T21:36:20.310Z,4.60
2018-07-19T21:38:49.513Z,5.10
2018-07-19T21:41:18.147Z,4.60
2018-07-19T21:43:47.069Z,4.62
2018-07-19T21:46:16.006Z,4.42
2018-07-19T21:48:45.218Z,4.78
2018-07-19T21:51:14.850Z,5.08
2018-07-19T21:53:43.778Z,4.58
2018-07-19T21:56:12.597Z,4.57
2018-07-19T21:58:41.487Z,4.67
2018-07-19T22:01:44.644Z,4.97
2018-07-19T22:04:13.982Z,5.00
2018-07-19T22:06:43.218Z,4.80
2018-07-19T22:09:13.208Z,4.75
2018-07-19T22:11:42.158Z,4.83
2018-07-19T22:14:16.055Z,4.87
2018-07-19T22:16:53.100Z,5.33
2018-07-19T22:19:22.294Z,4.78
2018-07-19T22:21:50.975Z,5.30
2018-07-19T22:24:19.437Z,5.20
2018-07-19T22:26:50.196Z,4.97
2018-07-19T22:29:19.881Z,5.22
2018-07-19T22:31:48.601Z,4.80
2018-07-19T22:34:17.265Z,5.67
2018-07-19T22:36:46.189Z,5.80
2018-07-19T22:39:15.455Z,5.53
2018-07-19T22:41:44.345Z,5.08
2018-07-19T22:44:12.991Z,5.47
2018-07-19T22:46:43.760Z,6.00
2018-07-19T22:49:12.983Z,5.63
2018-07-19T22:51:42.043Z,4.93
2018-07-19T22:54:11.098Z,4.83
2018-07-19T22:56:40.151Z,4.80
2018-07-19T22:59:09.760Z,5.33
2018-07-19T23:01:39.011Z,4.90
2018-07-19T23:04:08.514Z,5.07
2018-07-19T23:06:37.190Z,5.17
2018-07-19T23:09:08.395Z,5.60
2018-07-19T23:11:37.124Z,5.83
2018-07-19T23:14:07.507Z,5.07
2018-07-19T23:16:36.533Z,5.47
2018-07-19T23:19:05.199Z,5.23
2018-07-19T23:21:33.615Z,4.80
2018-07-19T23:24:02.546Z,5.22
2018-07-19T23:26:31.174Z,5.50
2018-07-19T23:29:00.132Z,5.28
2018-07-19T23:31:30.491Z,5.53
2018-07-19T23:33:59.136Z,5.17
2018-07-19T23:36:30.742Z,5.83
2018-07-19T23:39:05.251Z,5.25
2018-07-19T23:41:45.677Z,5.47
2018-07-19T23:44:19.573Z,5.43
2018-07-19T23:47:03.415Z,5.70
2018-07-19T23:49:33.053Z,5.13
2018-07-19T23:52:02.354Z,5.90
2018-07-19T23:54:31.243Z,5.60
2018-07-19T23:57:00.950Z,6.53
2018-07-19T23:59:29.761Z,6.20
